Time;durP1;ratioP1;P1;durP2;ratioP2;P2;SDS_P1;SDS_P2;PMS_P1;PMS_P2;Temp;Humidity;BMP_temperature;BMP_pressure;BME280_temperature;BME280_humidity;BME280_pressure;Samples;Min_cycle;Max_cycle;Signal;HPM_P1;HPM_P2
2021/04/08 00:00:19;;;;;;;1.92;0.77;;;23.00;37.80;;;;;;5042562;28;20029;-56
2021/04/08 00:02:45;;;;;;;1.65;0.75;;;23.00;37.80;;;;;;5036472;28;20110;-57
2021/04/08 00:05:13;;;;;;;2.97;1.00;;;23.00;37.80;;;;;;5050255;28;20029;-60
2021/04/08 00:07:39;;;;;;;1.90;0.70;;;23.00;37.80;;;;;;5050697;28;20048;-59
2021/04/08 00:10:06;;;;;;;1.75;0.75;;;23.00;37.80;;;;;;5056846;28;20470;-56
2021/04/08 00:12:32;;;;;;;1.85;0.80;;;23.00;37.80;;;;;;5045997;28;20040;-59
2021/04/08 00:14:58;;;;;;;1.67;0.80;;;23.00;37.90;;;;;;5041847;28;20025;-59
2021/04/08 00:17:24;;;;;;;2.05;0.80;;;23.00;37.80;;;;;;5034608;28;20113;-58
2021/04/08 00:19:49;;;;;;;1.88;0.75;;;23.00;37.80;;;;;;5049457;28;20106;-60
2021/04/08 00:22:15;;;;;;;1.77;0.60;;;23.00;37.80;;;;;;5044746;28;20029;-58
2021/04/08 00:24:40;;;;;;;1.02;0.60;;;23.00;37.80;;;;;;5037846;28;20032;-59
2021/04/08 00:27:07;;;;;;;1.70;0.77;;;22.90;37.80;;;;;;5042284;28;20029;-57
2021/04/08 00:29:32;;;;;;;1.70;0.90;;;22.90;37.80;;;;;;5038265;28;20514;-60
2021/04/08 00:31:58;;;;;;;1.52;0.65;;;22.90;37.80;;;;;;5060756;28;20036;-57
2021/04/08 00:34:24;;;;;;;2.50;0.80;;;22.90;38.30;;;;;;5063814;28;20035;-59
2021/04/08 00:36:49;;;;;;;1.70;0.70;;;22.90;37.80;;;;;;5061998;28;20032;-55
2021/04/08 00:39:15;;;;;;;1.58;0.80;;;22.90;37.80;;;;;;5064739;28;20028;-59
2021/04/08 00:41:42;;;;;;;1.90;0.90;;;22.90;37.80;;;;;;5066141;28;20048;-60
2021/04/08 00:44:08;;;;;;;1.83;0.73;;;22.90;37.80;;;;;;5065089;28;20032;-61
2021/04/08 00:46:34;;;;;;;1.50;0.70;;;22.90;37.70;;;;;;5064382;28;20037;-56
2021/04/08 00:49:00;;;;;;;1.48;0.75;;;22.90;37.70;;;;;;5063701;28;20048;-56
2021/04/08 00:51:26;;;;;;;1.33;0.80;;;22.80;37.70;;;;;;5065681;28;20826;-60
2021/04/08 00:53:52;;;;;;;2.08;0.85;;;22.80;38.20;;;;;;5065731;28;20044;-58
2021/04/08 00:56:18;;;;;;;1.33;0.70;;;22.80;37.70;;;;;;5061335;28;20073;-59
2021/04/08 00:58:44;;;;;;;1.48;0.73;;;22.80;37.70;;;;;;5064782;28;20032;-61
2021/04/08 01:01:11;;;;;;;2.13;0.80;;;22.80;37.70;;;;;;5063460;28;20044;-56
2021/04/08 01:03:37;;;;;;;1.55;0.68;;;22.80;37.70;;;;;;5064236;28;20063;-59
2021/04/08 01:06:03;;;;;;;2.28;0.90;;;22.80;37.70;;;;;;5063311;28;20060;-59
2021/04/08 01:08:29;;;;;;;2.28;0.98;;;22.80;37.70;;;;;;5064643;28;20028;-61
2021/04/08 01:10:54;;;;;;;0.98;0.70;;;22.80;37.70;;;;;;5060394;28;20085;-59
2021/04/08 01:13:22;;;;;;;1.48;0.70;;;22.80;37.70;;;;;;5065943;28;20106;-59
2021/04/08 01:15:48;;;;;;;1.48;0.65;;;22.80;37.70;;;;;;5064008;28;20055;-59
2021/04/08 01:18:26;;;;;;;0.88;0.70;;;22.80;37.70;;;;;;5062007;28;20777;-58
2021/04/08 01:21:08;;;;;;;1.55;0.80;;;22.70;37.60;;;;;;5064789;28;20025;-59
2021/04/08 01:23:49;;;;;;;1.52;0.70;;;22.80;37.60;;;;;;5049261;28;20040;-60
2021/04/08 01:26:53;;;;;;;1.38;0.70;;;22.70;37.60;;;;;;5062604;28;20037;-56
2021/04/08 01:29:37;;;;;;;1.17;0.70;;;22.70;37.60;;;;;;5049482;28;20056;-58
2021/04/08 01:32:06;;;;;;;1.10;0.70;;;22.70;37.60;;;;;;5062859;28;20036;-60
2021/04/08 01:34:35;;;;;;;1.13;0.80;;;22.70;37.60;;;;;;5061131;28;20120;-58
2021/04/08 01:37:06;;;;;;;1.50;0.70;;;22.70;38.10;;;;;;5062568;28;20047;-60
2021/04/08 01:39:32;;;;;;;1.98;0.80;;;22.70;37.60;;;;;;5059831;28;20032;-60
2021/04/08 01:41:58;;;;;;;0.90;0.60;;;22.70;37.60;;;;;;5062606;28;20624;-59
2021/04/08 01:44:25;;;;;;;0.85;0.65;;;22.70;37.60;;;;;;5061239;28;20035;-59
2021/04/08 01:46:55;;;;;;;1.38;0.70;;;22.70;37.60;;;;;;5062319;28;20374;-59
2021/04/08 01:49:24;;;;;;;1.25;0.60;;;22.70;37.60;;;;;;5061483;28;20024;-58
2021/04/08 01:51:51;;;;;;;1.50;0.70;;;22.70;37.60;;;;;;5062129;28;20208;-57
2021/04/08 01:54:18;;;;;;;1.90;0.80;;;22.70;37.70;;;;;;5060323;28;20462;-60
2021/04/08 01:56:46;;;;;;;0.82;0.60;;;22.70;37.60;;;;;;5061150;28;20029;-56
2021/04/08 01:59:14;;;;;;;1.00;0.60;;;22.60;37.60;;;;;;5063176;28;20029;-56
2021/04/08 02:01:42;;;;;;;1.70;0.70;;;22.70;37.70;;;;;;5060726;28;20044;-58
2021/04/08 02:04:10;;;;;;;1.20;0.70;;;22.60;37.60;;;;;;5062943;28;20047;-58
2021/04/08 02:06:36;;;;;;;0.82;0.63;;;22.60;37.60;;;;;;5063749;28;20387;-59
2021/04/08 02:09:04;;;;;;;1.30;0.60;;;22.60;37.60;;;;;;5061963;28;20117;-59
2021/04/08 02:11:31;;;;;;;0.75;0.60;;;22.60;37.60;;;;;;5063518;28;20046;-59
2021/04/08 02:13:57;;;;;;;3.72;0.90;;;22.60;37.60;;;;;;5062236;28;20093;-59
2021/04/08 02:16:23;;;;;;;0.93;0.70;;;22.60;37.60;;;;;;5063802;28;20491;-61
2021/04/08 02:18:51;;;;;;;1.10;0.60;;;22.60;37.60;;;;;;5060945;28;20100;-55
2021/04/08 02:21:19;;;;;;;0.63;0.60;;;22.60;37.60;;;;;;5062646;28;20939;-60
2021/04/08 02:23:47;;;;;;;1.30;0.60;;;22.60;37.60;;;;;;5063424;28;20040;-58
2021/04/08 02:26:18;;;;;;;1.20;0.60;;;22.60;37.60;;;;;;5061503;28;20035;-59
2021/04/08 02:28:44;;;;;;;1.83;0.70;;;22.60;37.60;;;;;;5055779;28;20072;-61
2021/04/08 02:31:10;;;;;;;0.80;0.60;;;22.60;37.60;;;;;;5063356;28;20544;-59
2021/04/08 02:33:37;;;;;;;0.82;0.60;;;22.60;37.60;;;;;;5059924;28;20116;-58
2021/04/08 02:36:03;;;;;;;2.03;0.60;;;22.60;37.60;;;;;;5064497;28;20044;-61
2021/04/08 02:38:32;;;;;;;1.35;0.70;;;22.60;37.60;;;;;;5061904;28;20039;-60
2021/04/08 02:41:08;;;;;;;1.23;0.65;;;22.60;37.60;;;;;;5062261;28;20554;-60
2021/04/08 02:43:35;;;;;;;1.23;0.63;;;22.60;37.60;;;;;;5053778;28;20021;-58
2021/04/08 02:46:01;;;;;;;1.08;0.60;;;22.60;37.60;;;;;;5063125;28;20045;-57
2021/04/08 02:48:27;;;;;;;0.95;0.63;;;22.60;37.60;;;;;;5062043;28;20344;-60
2021/04/08 02:50:55;;;;;;;1.23;0.55;;;22.60;38.10;;;;;;5059352;28;20028;-61
2021/04/08 02:53:50;;;;;;;0.90;0.60;;;22.60;37.60;;;;;;5061197;28;20024;-59
2021/04/08 02:56:24;;;;;;;1.35;0.73;;;22.50;37.60;;;;;;5062727;28;20175;-59
2021/04/08 02:58:54;;;;;;;1.02;0.60;;;22.50;37.50;;;;;;5062575;28;20083;-59
2021/04/08 03:01:24;;;;;;;0.63;0.57;;;22.50;37.50;;;;;;5058947;28;20029;-61
2021/04/08 03:03:55;;;;;;;0.63;0.52;;;22.50;37.60;;;;;;5058880;28;20021;-57
2021/04/08 03:06:22;;;;;;;0.95;0.60;;;22.50;37.50;;;;;;5056020;28;20036;-61
2021/04/08 03:08:53;;;;;;;0.70;0.60;;;22.50;38.10;;;;;;5062115;28;20028;-57
2021/04/08 03:11:32;;;;;;;1.17;0.70;;;22.50;37.60;;;;;;5062179;28;20032;-59
2021/04/08 03:14:00;;;;;;;0.90;0.65;;;22.50;37.60;;;;;;5059221;28;20080;-60
2021/04/08 03:16:36;;;;;;;1.30;0.70;;;22.50;37.60;;;;;;5061030;28;20119;-60
2021/04/08 03:19:03;;;;;;;0.85;0.60;;;22.50;37.60;;;;;;5060843;28;20042;-56
2021/04/08 03:21:29;;;;;;;1.10;0.55;;;22.50;37.90;;;;;;5077520;28;20029;-60
2021/04/08 03:23:57;;;;;;;1.20;0.52;;;22.50;37.60;;;;;;5060323;28;20037;-59
2021/04/08 03:26:25;;;;;;;1.20;0.68;;;22.50;37.60;;;;;;5062823;28;20105;-61
2021/04/08 03:28:52;;;;;;;0.93;0.60;;;22.50;37.60;;;;;;5060977;28;20116;-61
2021/04/08 03:31:20;;;;;;;0.63;0.50;;;22.50;37.60;;;;;;5061552;28;20166;-58
2021/04/08 03:33:45;;;;;;;1.10;0.60;;;22.50;37.60;;;;;;5061412;28;20035;-57
2021/04/08 03:36:14;;;;;;;0.57;0.50;;;22.50;37.60;;;;;;5060778;28;20055;-60
2021/04/08 03:38:40;;;;;;;1.02;0.70;;;22.50;37.60;;;;;;5058552;28;20036;-58
2021/04/08 03:41:06;;;;;;;0.85;0.60;;;22.50;37.60;;;;;;5061457;28;20039;-59
2021/04/08 03:43:32;;;;;;;0.80;0.60;;;22.50;37.60;;;;;;5062885;28;20037;-59
2021/04/08 03:46:00;;;;;;;1.02;0.52;;;22.50;37.60;;;;;;5063066;28;20043;-56
2021/04/08 03:48:27;;;;;;;0.82;0.50;;;22.50;37.60;;;;;;5059748;28;20775;-60
2021/04/08 03:50:54;;;;;;;0.68;0.50;;;22.50;37.60;;;;;;5057664;28;20035;-59
2021/04/08 03:53:20;;;;;;;0.80;0.60;;;22.40;37.60;;;;;;5058390;28;20040;-57
2021/04/08 03:55:47;;;;;;;0.50;0.50;;;22.50;37.60;;;;;;5065157;28;20574;-61
2021/04/08 03:58:14;;;;;;;0.98;0.63;;;22.50;37.60;;;;;;5065206;28;20056;-57
2021/04/08 04:00:40;;;;;;;0.65;0.60;;;22.50;37.60;;;;;;5075403;28;20041;-57
2021/04/08 04:03:10;;;;;;;0.95;0.60;;;22.50;37.60;;;;;;5048274;28;20039;-60
2021/04/08 04:05:41;;;;;;;0.52;0.50;;;22.50;37.60;;;;;;5065578;28;20029;-59
2021/04/08 04:08:08;;;;;;;1.13;0.60;;;22.40;37.50;;;;;;5065273;28;20067;-60
2021/04/08 04:10:36;;;;;;;1.02;0.60;;;22.50;37.60;;;;;;5064987;28;20035;-61
2021/04/08 04:13:03;;;;;;;0.82;0.55;;;22.50;37.60;;;;;;5062963;28;20042;-62
2021/04/08 04:15:29;;;;;;;0.65;0.50;;;22.50;37.60;;;;;;5055668;28;20063;-59
2021/04/08 04:17:55;;;;;;;0.73;0.60;;;22.50;37.60;;;;;;5063954;28;20769;-59
2021/04/08 04:20:21;;;;;;;0.57;0.45;;;22.40;37.60;;;;;;5063579;28;20111;-60
2021/04/08 04:22:46;;;;;;;1.70;0.50;;;22.50;37.60;;;;;;5063846;28;20108;-56
2021/04/08 04:25:13;;;;;;;0.82;0.57;;;22.50;37.60;;;;;;5062633;28;20759;-59
2021/04/08 04:27:39;;;;;;;0.50;0.45;;;22.50;37.60;;;;;;5064678;28;20025;-59
2021/04/08 04:30:08;;;;;;;0.75;0.60;;;22.40;37.60;;;;;;5064278;28;20113;-55
2021/04/08 04:32:34;;;;;;;0.77;0.60;;;22.50;37.60;;;;;;5056789;28;20028;-57
2021/04/08 04:34:59;;;;;;;0.60;0.50;;;22.50;37.60;;;;;;5064288;28;20162;-57
2021/04/08 04:37:25;;;;;;;1.02;0.50;;;22.40;37.60;;;;;;5064636;28;20108;-59
2021/04/08 04:39:51;;;;;;;1.25;0.70;;;22.40;37.60;;;;;;5059858;28;20040;-58
2021/04/08 04:42:16;;;;;;;0.55;0.50;;;22.40;37.60;;;;;;5065487;28;20621;-58
2021/04/08 04:44:42;;;;;;;1.17;0.60;;;22.50;37.70;;;;;;5063569;28;20059;-59
2021/04/08 04:47:08;;;;;;;1.58;0.70;;;22.50;37.60;;;;;;5052114;28;20031;-60
2021/04/08 04:49:34;;;;;;;0.98;0.50;;;22.50;37.60;;;;;;5064755;28;20017;-59
2021/04/08 04:51:59;;;;;;;0.90;0.60;;;22.50;37.60;;;;;;5064202;28;20108;-60
2021/04/08 04:54:25;;;;;;;0.98;0.70;;;22.40;37.60;;;;;;5064012;28;20032;-59
2021/04/08 04:56:51;;;;;;;0.55;0.45;;;22.50;38.20;;;;;;5065346;28;20101;-57
2021/04/08 04:59:17;;;;;;;0.85;0.60;;;22.50;37.60;;;;;;5065098;28;20107;-61
2021/04/08 05:01:43;;;;;;;0.98;0.52;;;22.50;37.70;;;;;;5047056;28;20120;-59
2021/04/08 05:04:08;;;;;;;1.70;0.57;;;22.50;37.70;;;;;;5045458;28;20083;-58
2021/04/08 05:06:34;;;;;;;0.63;0.50;;;22.50;37.70;;;;;;5044862;28;20029;-58
2021/04/08 05:09:00;;;;;;;0.45;0.45;;;22.50;37.70;;;;;;5042726;28;20032;-61
2021/04/08 05:11:27;;;;;;;0.65;0.50;;;22.40;37.70;;;;;;5050074;28;20135;-61
2021/04/08 05:13:52;;;;;;;0.63;0.50;;;22.40;37.70;;;;;;5043268;28;20048;-60
2021/04/08 05:16:18;;;;;;;0.73;0.57;;;22.50;37.70;;;;;;5039598;28;20369;-59
2021/04/08 05:18:44;;;;;;;0.80;0.57;;;22.50;37.70;;;;;;5052985;28;20029;-60
2021/04/08 05:21:10;;;;;;;0.50;0.50;;;22.50;37.70;;;;;;5035426;28;20033;-61
2021/04/08 05:23:36;;;;;;;0.70;0.60;;;22.50;37.70;;;;;;5040223;28;20077;-60
2021/04/08 05:26:02;;;;;;;0.65;0.40;;;22.50;37.70;;;;;;5045402;28;20387;-60
2021/04/08 05:28:28;;;;;;;0.60;0.50;;;22.40;37.70;;;;;;5037113;28;20032;-59
2021/04/08 05:30:53;;;;;;;0.40;0.40;;;22.50;37.80;;;;;;5054548;28;20117;-60
2021/04/08 05:33:19;;;;;;;0.75;0.50;;;22.50;37.80;;;;;;5063796;28;20020;-58
2021/04/08 05:35:44;;;;;;;0.77;0.50;;;22.50;37.80;;;;;;5049006;28;20044;-60
2021/04/08 05:38:11;;;;;;;1.52;0.65;;;22.50;37.80;;;;;;5050121;28;20033;-61
2021/04/08 05:40:37;;;;;;;0.73;0.50;;;22.40;37.80;;;;;;5044717;28;20036;-60
2021/04/08 05:43:02;;;;;;;0.82;0.50;;;22.40;37.80;;;;;;5045648;28;20186;-59
2021/04/08 05:45:28;;;;;;;0.82;0.60;;;22.40;37.80;;;;;;5043468;28;20029;-59
2021/04/08 05:47:54;;;;;;;0.73;0.50;;;22.40;37.80;;;;;;5044636;28;20830;-60
2021/04/08 05:50:20;;;;;;;1.00;0.57;;;22.40;37.80;;;;;;5043021;28;20123;-59
2021/04/08 05:52:46;;;;;;;1.00;0.60;;;22.40;37.80;;;;;;5045026;28;20032;-59
2021/04/08 05:55:12;;;;;;;1.75;0.50;;;22.40;37.80;;;;;;5040346;28;20041;-60
2021/04/08 05:57:38;;;;;;;1.25;0.50;;;22.50;37.90;;;;;;5040118;28;20044;-59
2021/04/08 06:00:06;;;;;;;0.65;0.50;;;22.40;37.80;;;;;;5043133;28;20037;-60
2021/04/08 06:02:33;;;;;;;0.73;0.60;;;22.40;37.90;;;;;;5041573;28;20798;-61
2021/04/08 06:04:58;;;;;;;1.08;0.50;;;22.50;37.90;;;;;;5043045;28;20464;-60
2021/04/08 06:07:24;;;;;;;0.88;0.50;;;22.40;37.90;;;;;;5041378;28;20040;-60
2021/04/08 06:09:50;;;;;;;0.73;0.55;;;22.50;37.90;;;;;;5036356;28;20028;-61
2021/04/08 06:12:16;;;;;;;2.60;1.00;;;22.50;38.10;;;;;;5039103;28;20024;-60
2021/04/08 06:14:42;;;;;;;0.60;0.60;;;22.50;38.10;;;;;;5034914;28;20091;-59
2021/04/08 06:17:08;;;;;;;0.93;0.55;;;22.60;38.00;;;;;;5037060;28;20044;-60
2021/04/08 06:19:34;;;;;;;1.23;0.68;;;22.70;37.90;;;;;;5042816;28;20447;-60
2021/04/08 06:22:00;;;;;;;1.15;0.60;;;22.80;37.90;;;;;;5043891;28;20044;-59
2021/04/08 06:24:25;;;;;;;1.15;0.60;;;22.90;37.70;;;;;;5042529;28;20765;-60
2021/04/08 06:26:51;;;;;;;1.25;0.90;;;23.00;38.10;;;;;;5042839;28;20024;-59
2021/04/08 06:29:17;;;;;;;1.60;0.85;;;23.10;37.40;;;;;;5038129;28;20060;-60
2021/04/08 06:31:44;;;;;;;2.17;0.98;;;23.20;37.40;;;;;;5042531;28;20048;-60
2021/04/08 06:34:09;;;;;;;1.58;0.70;;;23.30;37.30;;;;;;5044031;28;20025;-59
2021/04/08 06:36:35;;;;;;;2.03;1.00;;;23.30;37.10;;;;;;5043991;28;20033;-60
2021/04/08 06:39:01;;;;;;;2.17;1.20;;;23.40;36.90;;;;;;5041403;28;20033;-60
2021/04/08 06:41:26;;;;;;;1.15;0.90;;;23.50;36.90;;;;;;5043077;28;20037;-61
2021/04/08 06:43:55;;;;;;;2.85;0.90;;;23.60;37.30;;;;;;5043508;28;20037;-60
2021/04/08 06:46:22;;;;;;;2.85;1.00;;;23.60;36.60;;;;;;5043109;28;20119;-60
2021/04/08 06:48:54;;;;;;;2.25;1.10;;;23.70;36.60;;;;;;5043402;28;20025;-60
2021/04/08 06:51:21;;;;;;;2.90;0.80;;;23.70;36.60;;;;;;5032226;28;20033;-60
2021/04/08 06:53:48;;;;;;;1.45;0.80;;;23.60;36.60;;;;;;5034890;28;20364;-60
2021/04/08 06:56:14;;;;;;;2.42;0.88;;;23.60;36.70;;;;;;5044082;28;20025;-61
2021/04/08 06:58:40;;;;;;;2.47;1.00;;;23.60;36.70;;;;;;5032600;28;20459;-60
2021/04/08 07:01:10;;;;;;;2.58;1.20;;;23.60;36.80;;;;;;5042165;28;20043;-60
2021/04/08 07:03:38;;;;;;;2.33;1.00;;;23.60;36.80;;;;;;5042481;28;20424;-61
2021/04/08 07:06:04;;;;;;;2.20;1.15;;;23.60;36.80;;;;;;5041330;28;20553;-61
2021/04/08 07:08:31;;;;;;;3.85;1.17;;;23.60;36.80;;;;;;5040487;28;20037;-60
2021/04/08 07:10:58;;;;;;;4.80;1.10;;;23.60;36.80;;;;;;5042535;28;20384;-61
2021/04/08 07:13:27;;;;;;;1.58;0.90;;;23.60;36.80;;;;;;5043389;28;20205;-62
2021/04/08 07:15:54;;;;;;;3.65;1.10;;;23.60;36.80;;;;;;5042429;28;20371;-62
2021/04/08 07:18:23;;;;;;;1.92;0.80;;;23.60;36.80;;;;;;5039460;28;20033;-61
2021/04/08 07:20:50;;;;;;;2.97;1.20;;;23.60;36.70;;;;;;5041956;28;20029;-61
2021/04/08 07:23:16;;;;;;;3.33;1.10;;;23.60;36.70;;;;;;5041095;28;20040;-62
2021/04/08 07:26:17;;;;;;;2.35;0.93;;;23.60;36.70;;;;;;5042800;28;20037;-61
2021/04/08 07:28:43;;;;;;;2.80;1.10;;;23.70;36.70;;;;;;4984626;28;20201;-60
2021/04/08 07:31:28;;;;;;;3.53;1.10;;;23.70;36.70;;;;;;5037459;28;20044;-61
2021/04/08 07:33:57;;;;;;;2.60;0.95;;;23.70;36.70;;;;;;5046454;28;20061;-61
2021/04/08 07:36:27;;;;;;;2.58;0.93;;;23.70;36.70;;;;;;5060415;28;20106;-60
2021/04/08 07:38:52;;;;;;;3.00;1.00;;;23.70;36.60;;;;;;5049335;28;20028;-61
2021/04/08 07:41:27;;;;;;;3.25;1.20;;;23.70;36.60;;;;;;5060909;28;20028;-60
2021/04/08 07:44:10;;;;;;;3.10;1.30;;;23.70;36.70;;;;;;5052125;28;20068;-60
2021/04/08 07:46:37;;;;;;;3.05;1.00;;;23.70;36.70;;;;;;5062681;28;20973;-60
2021/04/08 07:49:05;;;;;;;1.92;0.90;;;23.70;36.60;;;;;;5041898;28;20097;-61
2021/04/08 07:51:33;;;;;;;2.63;1.10;;;23.80;36.70;;;;;;5046760;28;20116;-62
2021/04/08 07:54:14;;;;;;;2.10;1.00;;;23.80;36.70;;;;;;5045508;28;20036;-61
2021/04/08 07:56:41;;;;;;;2.75;1.10;;;23.80;36.70;;;;;;5044389;28;20024;-60
2021/04/08 07:59:18;;;;;;;1.95;0.95;;;23.70;36.60;;;;;;5045502;28;20107;-61
2021/04/08 08:01:47;;;;;;;2.13;1.00;;;23.80;36.70;;;;;;5057532;28;20041;-61
2021/04/08 08:04:23;;;;;;;2.50;1.05;;;23.80;36.70;;;;;;5065173;28;20039;-61
2021/04/08 08:06:49;;;;;;;1.85;0.90;;;23.80;36.60;;;;;;5066043;28;20105;-62
2021/04/08 08:09:19;;;;;;;2.15;0.90;;;23.80;36.60;;;;;;5074520;28;20032;-60
2021/04/08 08:11:45;;;;;;;2.75;1.02;;;23.80;36.60;;;;;;5069409;28;20139;-62
2021/04/08 08:14:11;;;;;;;2.38;1.10;;;23.80;36.70;;;;;;5072316;28;20035;-59
2021/04/08 08:16:38;;;;;;;3.17;1.00;;;23.80;36.60;;;;;;5064570;28;20028;-60
2021/04/08 08:19:04;;;;;;;2.25;1.00;;;23.80;36.60;;;;;;5069174;28;20025;-60
2021/04/08 08:21:38;;;;;;;2.50;1.10;;;23.80;36.70;;;;;;5082955;28;20042;-59
2021/04/08 08:24:11;;;;;;;2.40;1.00;;;23.80;36.70;;;;;;5071101;28;20107;-60
2021/04/08 08:26:42;;;;;;;3.35;1.10;;;23.90;37.20;;;;;;5065425;28;20017;-59
2021/04/08 08:29:11;;;;;;;2.65;1.20;;;23.90;36.70;;;;;;5071169;28;20025;-60
2021/04/08 08:31:43;;;;;;;2.45;0.90;;;23.80;36.70;;;;;;5074111;28;20033;-60
2021/04/08 08:34:17;;;;;;;2.83;1.10;;;23.90;36.70;;;;;;5072428;28;20059;-60
2021/04/08 08:36:45;;;;;;;3.03;1.40;;;23.90;36.70;;;;;;5074227;28;20614;-60
2021/04/08 08:39:14;;;;;;;1.80;1.00;;;23.90;36.70;;;;;;5071147;28;20077;-60
2021/04/08 08:41:41;;;;;;;2.33;1.10;;;23.90;36.70;;;;;;5071212;28;20029;-60
2021/04/08 08:44:09;;;;;;;2.40;0.98;;;23.90;36.70;;;;;;5066905;28;20040;-60
2021/04/08 08:47:01;;;;;;;2.88;1.20;;;23.90;36.80;;;;;;5070642;28;20036;-60
2021/04/08 08:49:57;;;;;;;2.75;1.00;;;23.90;36.80;;;;;;5069877;28;20337;-61
2021/04/08 08:52:29;;;;;;;2.63;1.00;;;23.90;36.80;;;;;;5068881;28;20066;-61
2021/04/08 08:54:55;;;;;;;3.17;1.10;;;23.90;36.90;;;;;;5069568;28;20145;-61
2021/04/08 08:57:22;;;;;;;3.00;1.00;;;23.90;36.80;;;;;;5072482;28;20162;-61
2021/04/08 08:59:49;;;;;;;2.45;1.00;;;23.90;36.80;;;;;;5075690;28;20032;-60
2021/04/08 09:02:16;;;;;;;2.20;1.00;;;23.90;36.80;;;;;;5066105;28;20459;-60
2021/04/08 09:04:42;;;;;;;3.17;0.90;;;23.90;36.90;;;;;;5072890;28;20036;-61
2021/04/08 09:07:11;;;;;;;3.83;1.10;;;23.90;36.90;;;;;;5065429;28;20760;-59
2021/04/08 09:09:39;;;;;;;1.90;1.00;;;23.90;36.90;;;;;;5072372;28;20021;-60
2021/04/08 09:12:15;;;;;;;2.30;1.10;;;23.90;36.90;;;;;;5069442;28;20024;-59
2021/04/08 09:14:42;;;;;;;1.77;0.95;;;23.90;37.00;;;;;;5073386;28;20031;-60
2021/04/08 09:17:08;;;;;;;1.85;0.90;;;23.90;37.00;;;;;;5067806;28;20031;-60
2021/04/08 09:19:34;;;;;;;2.55;1.08;;;23.90;37.10;;;;;;5071836;28;20024;-59
2021/04/08 09:22:06;;;;;;;1.98;1.10;;;23.90;37.10;;;;;;5071329;28;20109;-59
2021/04/08 09:24:43;;;;;;;2.10;1.00;;;23.90;37.10;;;;;;5059478;28;20025;-60
2021/04/08 09:27:09;;;;;;;3.15;0.90;;;23.90;37.10;;;;;;5069033;28;20020;-59
2021/04/08 09:29:42;;;;;;;2.00;1.02;;;23.90;37.10;;;;;;5066283;28;20074;-60
2021/04/08 09:32:42;;;;;;;1.70;0.90;;;23.90;37.10;;;;;;5064810;28;20124;-60
2021/04/08 09:35:13;;;;;;;1.40;1.00;;;23.90;37.10;;;;;;5049975;28;20067;-60
2021/04/08 09:37:45;;;;;;;1.80;1.00;;;23.90;37.10;;;;;;5061405;28;20037;-60
2021/04/08 09:40:37;;;;;;;2.50;0.98;;;23.90;37.20;;;;;;5056466;28;20182;-61
2021/04/08 09:43:11;;;;;;;2.97;1.17;;;23.90;37.10;;;;;;5051217;28;20131;-60
2021/04/08 09:46:05;;;;;;;1.23;0.75;;;23.90;37.00;;;;;;5057676;28;20020;-57
2021/04/08 09:48:52;;;;;;;2.60;0.98;;;24.00;37.10;;;;;;5060336;28;20043;-59
2021/04/08 09:51:33;;;;;;;1.77;0.98;;;24.00;37.10;;;;;;5063890;28;20036;-59
2021/04/08 09:54:03;;;;;;;2.58;0.93;;;24.00;37.10;;;;;;5049662;28;20068;-59
2021/04/08 09:56:42;;;;;;;;;;;24.00;37.10;;;;;;5062463;28;20029;-61
2021/04/08 09:59:07;;;;;;;3.28;1.02;;;24.00;37.10;;;;;;5062380;28;20524;-59
2021/04/08 10:01:33;;;;;;;2.22;0.98;;;24.00;37.10;;;;;;5055867;28;20048;-61
2021/04/08 10:04:16;;;;;;;2.92;0.90;;;24.10;37.10;;;;;;5060074;28;20029;-59
2021/04/08 10:06:43;;;;;;;2.83;1.00;;;24.00;37.00;;;;;;5057040;28;20028;-59
2021/04/08 10:09:16;;;;;;;2.08;0.90;;;24.10;37.10;;;;;;5063221;28;20029;-59
2021/04/08 10:11:42;;;;;;;2.38;0.98;;;24.10;37.10;;;;;;5064397;28;20451;-60
2021/04/08 10:14:21;;;;;;;2.00;0.88;;;24.00;37.00;;;;;;5060940;28;20025;-59
2021/04/08 10:17:11;;;;;;;2.22;0.80;;;24.10;37.10;;;;;;5061383;28;20447;-58
2021/04/08 10:19:42;;;;;;;1.88;0.90;;;24.10;37.10;;;;;;5062511;28;20028;-60
2021/04/08 10:22:09;;;;;;;1.73;0.90;;;24.10;37.10;;;;;;5062817;28;20485;-60
2021/04/08 10:24:43;;;;;;;2.42;1.00;;;24.10;37.30;;;;;;5062411;28;20387;-58
2021/04/08 10:27:24;;;;;;;2.08;0.77;;;24.10;37.30;;;;;;5063368;28;20052;-59
2021/04/08 10:29:50;;;;;;;1.58;0.80;;;24.10;37.40;;;;;;5063948;28;20378;-59
2021/04/08 10:32:36;;;;;;;1.92;0.80;;;24.10;37.40;;;;;;5063029;28;20025;-59
2021/04/08 10:35:03;;;;;;;2.75;0.80;;;24.10;37.30;;;;;;5062321;28;20082;-59
2021/04/08 10:37:29;;;;;;;3.05;0.90;;;24.10;37.40;;;;;;5061791;28;20052;-59
2021/04/08 10:39:54;;;;;;;1.85;0.90;;;24.20;37.40;;;;;;5054536;28;20071;-59
2021/04/08 10:42:22;;;;;;;1.33;0.80;;;24.20;37.40;;;;;;5058376;28;20169;-60
2021/04/08 10:44:52;;;;;;;2.58;0.95;;;24.20;37.60;;;;;;5060015;28;20348;-61
2021/04/08 10:47:26;;;;;;;1.73;0.70;;;24.20;37.40;;;;;;5061850;28;20081;-60
2021/04/08 10:50:00;;;;;;;2.55;1.00;;;24.30;37.40;;;;;;5058387;28;20082;-60
2021/04/08 10:52:33;;;;;;;2.78;1.15;;;24.30;37.30;;;;;;5059653;28;20332;-60
2021/04/08 10:55:01;;;;;;;2.88;0.90;;;24.30;37.40;;;;;;5058489;28;20040;-60
2021/04/08 10:57:28;;;;;;;2.53;0.80;;;24.30;37.40;;;;;;5058357;28;20039;-60
2021/04/08 10:59:54;;;;;;;2.38;0.90;;;24.30;37.40;;;;;;5059472;28;20033;-60
2021/04/08 11:02:34;;;;;;;2.15;0.70;;;24.30;37.30;;;;;;5062488;28;20036;-60
2021/04/08 11:05:05;;;;;;;2.20;1.17;;;24.30;37.30;;;;;;5066575;28;20029;-61
2021/04/08 11:07:37;;;;;;;2.00;0.82;;;24.30;37.20;;;;;;5053589;28;20070;-61
2021/04/08 11:10:10;;;;;;;1.63;0.70;;;24.30;37.10;;;;;;5066470;28;20028;-60
2021/04/08 11:12:36;;;;;;;1.88;0.77;;;24.30;37.10;;;;;;5064449;28;20112;-60
2021/04/08 11:15:04;;;;;;;2.08;0.95;;;24.30;37.00;;;;;;5056816;28;20132;-60
2021/04/08 11:17:32;;;;;;;3.00;0.83;;;24.30;37.10;;;;;;5065999;28;20439;-61
2021/04/08 11:19:58;;;;;;;1.63;0.63;;;24.30;37.10;;;;;;5063244;28;20287;-60
2021/04/08 11:22:29;;;;;;;1.77;0.90;;;24.30;37.10;;;;;;5065029;28;20039;-60
2021/04/08 11:24:57;;;;;;;3.80;0.80;;;24.30;37.10;;;;;;5058484;28;20124;-60
2021/04/08 11:27:34;;;;;;;1.02;0.70;;;24.30;37.10;;;;;;5063908;28;20021;-60
2021/04/08 11:30:00;;;;;;;1.20;0.68;;;24.30;37.60;;;;;;5066791;28;20099;-61
2021/04/08 11:32:26;;;;;;;2.53;0.80;;;24.20;36.90;;;;;;5066142;28;20123;-60
2021/04/08 11:34:54;;;;;;;2.03;0.70;;;24.20;36.80;;;;;;5067504;28;20125;-60
2021/04/08 11:37:32;;;;;;;1.58;0.80;;;24.20;36.80;;;;;;5065848;28;20075;-60
2021/04/08 11:40:00;;;;;;;1.25;0.68;;;24.20;36.60;;;;;;5064627;28;20390;-60
2021/04/08 11:42:39;;;;;;;0.55;0.50;;;24.20;36.70;;;;;;5063754;28;20113;-60
2021/04/08 11:45:23;;;;;;;1.00;0.60;;;24.30;36.70;;;;;;5063391;28;20048;-61
2021/04/08 11:47:59;;;;;;;1.40;0.60;;;24.20;36.60;;;;;;5067756;28;20108;-60
2021/04/08 11:50:30;;;;;;;1.38;0.70;;;24.20;36.70;;;;;;5063919;28;20059;-60
2021/04/08 11:53:10;;;;;;;1.40;0.80;;;24.20;36.70;;;;;;5065645;28;20035;-60
2021/04/08 11:55:56;;;;;;;1.80;0.70;;;24.20;36.70;;;;;;5061874;28;20144;-60
2021/04/08 11:58:28;;;;;;;1.52;0.70;;;24.20;36.80;;;;;;5052967;28;20044;-60
2021/04/08 12:01:06;;;;;;;1.02;0.60;;;24.20;36.80;;;;;;5053539;28;20043;-59
2021/04/08 12:03:48;;;;;;;0.77;0.60;;;24.20;36.90;;;;;;5064439;28;20063;-60
2021/04/08 12:06:21;;;;;;;1.05;0.57;;;24.10;36.80;;;;;;5059348;28;20107;-59
2021/04/08 12:08:55;;;;;;;0.60;0.57;;;24.10;37.40;;;;;;5064851;28;20035;-59
2021/04/08 12:11:22;;;;;;;0.98;0.60;;;24.10;36.90;;;;;;5065630;28;20056;-59
2021/04/08 12:14:01;;;;;;;1.27;0.80;;;24.20;37.00;;;;;;5064270;28;20632;-59
2021/04/08 12:16:28;;;;;;;3.47;0.63;;;24.20;37.00;;;;;;5064592;28;20036;-60
2021/04/08 12:18:54;;;;;;;1.17;0.68;;;24.10;37.00;;;;;;5064997;28;20032;-60
2021/04/08 12:21:21;;;;;;;0.95;0.68;;;24.10;37.00;;;;;;5059776;28;20059;-60
2021/04/08 12:23:48;;;;;;;0.90;0.68;;;24.10;37.00;;;;;;5063145;28;20551;-61
2021/04/08 12:26:14;;;;;;;1.55;0.80;;;24.10;37.00;;;;;;5062247;28;20036;-59
2021/04/08 12:28:41;;;;;;;2.20;0.65;;;24.10;37.00;;;;;;5063541;28;20136;-60
2021/04/08 12:31:09;;;;;;;0.80;0.60;;;24.10;37.00;;;;;;5064149;28;20036;-60
2021/04/08 12:33:40;;;;;;;2.28;0.68;;;24.10;37.10;;;;;;5065775;28;20159;-60
2021/04/08 12:36:12;;;;;;;1.52;0.68;;;24.20;37.10;;;;;;5064538;28;20196;-60
2021/04/08 12:38:39;;;;;;;1.52;0.75;;;24.10;37.10;;;;;;5064524;28;20056;-61
2021/04/08 12:41:06;;;;;;;1.73;0.88;;;24.10;37.10;;;;;;5065846;28;20032;-60
2021/04/08 12:43:32;;;;;;;1.83;0.80;;;24.10;37.10;;;;;;5066001;28;20123;-60
2021/04/08 12:45:59;;;;;;;1.25;0.80;;;24.10;37.10;;;;;;5066082;28;20210;-59
2021/04/08 12:48:25;;;;;;;1.15;0.70;;;24.10;37.10;;;;;;5066241;28;20036;-61
2021/04/08 12:50:52;;;;;;;0.52;0.52;;;24.10;37.20;;;;;;5062493;28;20364;-58
2021/04/08 12:53:23;;;;;;;1.52;0.65;;;24.10;37.20;;;;;;5064457;28;20024;-57
2021/04/08 12:55:50;;;;;;;1.98;1.00;;;24.10;37.20;;;;;;5059451;28;20070;-59
2021/04/08 12:58:16;;;;;;;1.08;0.68;;;24.10;37.20;;;;;;5064103;28;20060;-57